sensor_id;sensor_type;location;lat;lon;timestamp;P1;durP1;ratioP1;P2;durP2;ratioP2
70450;SDS011;58869;51.982;4.450;2022-07-06T00:01:48;1.38;;;1.31;;
70450;SDS011;58869;51.982;4.450;2022-07-06T00:04:15;1.38;;;1.31;;
70450;SDS011;58869;51.982;4.450;2022-07-06T00:06:41;1.19;;;1.17;;
70450;SDS011;58869;51.982;4.450;2022-07-06T00:09:07;1.12;;;1.11;;
70450;SDS011;58869;51.982;4.450;2022-07-06T00:11:32;1.15;;;1.14;;
70450;SDS011;58869;51.982;4.450;2022-07-06T00:13:57;1.18;;;1.15;;
70450;SDS011;58869;51.982;4.450;2022-07-06T00:16:26;1.08;;;1.07;;
70450;SDS011;58869;51.982;4.450;2022-07-06T00:18:52;1.13;;;1.11;;
70450;SDS011;58869;51.982;4.450;2022-07-06T00:21:17;1.23;;;1.17;;
70450;SDS011;58869;51.982;4.450;2022-07-06T00:23:43;1.32;;;1.25;;
70450;SDS011;58869;51.982;4.450;2022-07-06T00:26:08;1.21;;;1.14;;
70450;SDS011;58869;51.982;4.450;2022-07-06T00:28:34;1.13;;;1.07;;
70450;SDS011;58869;51.982;4.450;2022-07-06T00:30:59;1.32;;;1.26;;
70450;SDS011;58869;51.982;4.450;2022-07-06T00:33:25;1.31;;;1.25;;
70450;SDS011;58869;51.982;4.450;2022-07-06T00:35:50;1.09;;;1.05;;
70450;SDS011;58869;51.982;4.450;2022-07-06T00:38:16;1.20;;;1.15;;
70450;SDS011;58869;51.982;4.450;2022-07-06T00:40:41;1.20;;;1.14;;
70450;SDS011;58869;51.982;4.450;2022-07-06T00:43:07;1.24;;;1.18;;
70450;SDS011;58869;51.982;4.450;2022-07-06T00:45:32;1.02;;;0.98;;
70450;SDS011;58869;51.982;4.450;2022-07-06T00:47:58;1.30;;;1.25;;
70450;SDS011;58869;51.982;4.450;2022-07-06T00:50:23;1.22;;;1.18;;
70450;SDS011;58869;51.982;4.450;2022-07-06T00:55:35;1.38;;;1.31;;
70450;SDS011;58869;51.982;4.450;2022-07-06T00:58:04;1.31;;;1.24;;
70450;SDS011;58869;51.982;4.450;2022-07-06T01:00:31;1.34;;;1.27;;
70450;SDS011;58869;51.982;4.450;2022-07-06T01:02:58;1.24;;;1.18;;
70450;SDS011;58869;51.982;4.450;2022-07-06T01:05:23;1.25;;;1.20;;
70450;SDS011;58869;51.982;4.450;2022-07-06T01:07:49;1.22;;;1.18;;
70450;SDS011;58869;51.982;4.450;2022-07-06T01:10:17;1.33;;;1.28;;
70450;SDS011;58869;51.982;4.450;2022-07-06T01:12:44;1.23;;;1.19;;
70450;SDS011;58869;51.982;4.450;2022-07-06T01:15:18;1.12;;;1.09;;
70450;SDS011;58869;51.982;4.450;2022-07-06T01:17:48;1.24;;;1.20;;
70450;SDS011;58869;51.982;4.450;2022-07-06T01:22:40;1.32;;;1.25;;
70450;SDS011;58869;51.982;4.450;2022-07-06T01:25:12;1.49;;;1.41;;
70450;SDS011;58869;51.982;4.450;2022-07-06T01:27:38;1.59;;;1.49;;
70450;SDS011;58869;51.982;4.450;2022-07-06T01:30:11;1.41;;;1.33;;
70450;SDS011;58869;51.982;4.450;2022-07-06T01:32:39;1.48;;;1.42;;
70450;SDS011;58869;51.982;4.450;2022-07-06T01:35:07;1.44;;;1.38;;
70450;SDS011;58869;51.982;4.450;2022-07-06T01:37:34;1.41;;;1.36;;
70450;SDS011;58869;51.982;4.450;2022-07-06T01:40:01;1.30;;;1.25;;
70450;SDS011;58869;51.982;4.450;2022-07-06T01:42:28;1.21;;;1.18;;
70450;SDS011;58869;51.982;4.450;2022-07-06T01:44:56;1.22;;;1.19;;
70450;SDS011;58869;51.982;4.450;2022-07-06T01:47:21;1.18;;;1.14;;
70450;SDS011;58869;51.982;4.450;2022-07-06T01:49:47;1.40;;;1.34;;
70450;SDS011;58869;51.982;4.450;2022-07-06T01:52:13;1.35;;;1.30;;
70450;SDS011;58869;51.982;4.450;2022-07-06T01:54:39;1.24;;;1.19;;
70450;SDS011;58869;51.982;4.450;2022-07-06T01:57:13;1.56;;;1.48;;
70450;SDS011;58869;51.982;4.450;2022-07-06T01:59:39;1.33;;;1.27;;
70450;SDS011;58869;51.982;4.450;2022-07-06T02:02:04;1.45;;;1.41;;
70450;SDS011;58869;51.982;4.450;2022-07-06T02:04:30;1.34;;;1.31;;
70450;SDS011;58869;51.982;4.450;2022-07-06T02:06:55;1.31;;;1.28;;
70450;SDS011;58869;51.982;4.450;2022-07-06T02:09:23;1.12;;;1.10;;
70450;SDS011;58869;51.982;4.450;2022-07-06T02:11:51;1.42;;;1.40;;
70450;SDS011;58869;51.982;4.450;2022-07-06T02:14:17;1.31;;;1.31;;
70450;SDS011;58869;51.982;4.450;2022-07-06T02:16:42;1.35;;;1.33;;
70450;SDS011;58869;51.982;4.450;2022-07-06T02:19:07;1.32;;;1.31;;
70450;SDS011;58869;51.982;4.450;2022-07-06T02:21:33;1.45;;;1.43;;
70450;SDS011;58869;51.982;4.450;2022-07-06T02:23:58;1.48;;;1.48;;
70450;SDS011;58869;51.982;4.450;2022-07-06T02:26:24;1.40;;;1.40;;
70450;SDS011;58869;51.982;4.450;2022-07-06T02:28:49;1.44;;;1.44;;
70450;SDS011;58869;51.982;4.450;2022-07-06T02:31:15;1.41;;;1.40;;
70450;SDS011;58869;51.982;4.450;2022-07-06T02:33:40;1.54;;;1.53;;
70450;SDS011;58869;51.982;4.450;2022-07-06T02:36:06;1.45;;;1.45;;
70450;SDS011;58869;51.982;4.450;2022-07-06T02:38:32;1.43;;;1.43;;
70450;SDS011;58869;51.982;4.450;2022-07-06T02:40:57;1.45;;;1.45;;
70450;SDS011;58869;51.982;4.450;2022-07-06T02:43:23;1.58;;;1.58;;
70450;SDS011;58869;51.982;4.450;2022-07-06T02:45:48;1.42;;;1.42;;
70450;SDS011;58869;51.982;4.450;2022-07-06T02:48:14;1.43;;;1.43;;
70450;SDS011;58869;51.982;4.450;2022-07-06T02:50:39;1.60;;;1.60;;
70450;SDS011;58869;51.982;4.450;2022-07-06T02:53:05;1.41;;;1.41;;
70450;SDS011;58869;51.982;4.450;2022-07-06T02:55:30;1.48;;;1.48;;
70450;SDS011;58869;51.982;4.450;2022-07-06T02:57:56;1.47;;;1.47;;
70450;SDS011;58869;51.982;4.450;2022-07-06T03:00:21;1.39;;;1.39;;
70450;SDS011;58869;51.982;4.450;2022-07-06T03:02:46;1.41;;;1.41;;
70450;SDS011;58869;51.982;4.450;2022-07-06T03:05:12;1.40;;;1.40;;
70450;SDS011;58869;51.982;4.450;2022-07-06T03:07:37;1.44;;;1.44;;
70450;SDS011;58869;51.982;4.450;2022-07-06T03:10:03;1.44;;;1.44;;
70450;SDS011;58869;51.982;4.450;2022-07-06T03:12:29;1.31;;;1.31;;
70450;SDS011;58869;51.982;4.450;2022-07-06T03:14:54;1.31;;;1.31;;
70450;SDS011;58869;51.982;4.450;2022-07-06T03:17:20;1.30;;;1.30;;
70450;SDS011;58869;51.982;4.450;2022-07-06T03:19:46;1.43;;;1.43;;
70450;SDS011;58869;51.982;4.450;2022-07-06T03:22:12;1.39;;;1.39;;
70450;SDS011;58869;51.982;4.450;2022-07-06T03:24:37;1.45;;;1.45;;
70450;SDS011;58869;51.982;4.450;2022-07-06T03:27:03;1.44;;;1.44;;
70450;SDS011;58869;51.982;4.450;2022-07-06T03:29:28;1.51;;;1.51;;
70450;SDS011;58869;51.982;4.450;2022-07-06T03:31:54;1.53;;;1.53;;
70450;SDS011;58869;51.982;4.450;2022-07-06T03:34:19;1.55;;;1.55;;
70450;SDS011;58869;51.982;4.450;2022-07-06T03:36:45;1.48;;;1.48;;
70450;SDS011;58869;51.982;4.450;2022-07-06T03:39:10;1.61;;;1.61;;
70450;SDS011;58869;51.982;4.450;2022-07-06T03:41:35;1.57;;;1.57;;
70450;SDS011;58869;51.982;4.450;2022-07-06T03:44:01;1.71;;;1.71;;
70450;SDS011;58869;51.982;4.450;2022-07-06T03:46:27;1.60;;;1.60;;
70450;SDS011;58869;51.982;4.450;2022-07-06T03:48:54;1.42;;;1.42;;
70450;SDS011;58869;51.982;4.450;2022-07-06T03:51:19;1.56;;;1.56;;
70450;SDS011;58869;51.982;4.450;2022-07-06T03:53:45;1.56;;;1.56;;
70450;SDS011;58869;51.982;4.450;2022-07-06T03:56:10;1.52;;;1.52;;
70450;SDS011;58869;51.982;4.450;2022-07-06T04:01:29;1.59;;;1.59;;
70450;SDS011;58869;51.982;4.450;2022-07-06T04:03:55;1.54;;;1.54;;
70450;SDS011;58869;51.982;4.450;2022-07-06T04:06:21;1.59;;;1.59;;
70450;SDS011;58869;51.982;4.450;2022-07-06T04:08:47;1.43;;;1.43;;
70450;SDS011;58869;51.982;4.450;2022-07-06T04:11:12;1.40;;;1.40;;
70450;SDS011;58869;51.982;4.450;2022-07-06T04:13:37;1.66;;;1.66;;
70450;SDS011;58869;51.982;4.450;2022-07-06T04:16:04;1.71;;;1.71;;
70450;SDS011;58869;51.982;4.450;2022-07-06T04:18:33;1.41;;;1.41;;
70450;SDS011;58869;51.982;4.450;2022-07-06T04:20:58;1.31;;;1.31;;
70450;SDS011;58869;51.982;4.450;2022-07-06T04:23:24;1.46;;;1.46;;
70450;SDS011;58869;51.982;4.450;2022-07-06T04:25:50;1.32;;;1.32;;
70450;SDS011;58869;51.982;4.450;2022-07-06T04:28:15;1.45;;;1.45;;
70450;SDS011;58869;51.982;4.450;2022-07-06T04:30:41;1.45;;;1.45;;
70450;SDS011;58869;51.982;4.450;2022-07-06T04:33:06;1.45;;;1.45;;
70450;SDS011;58869;51.982;4.450;2022-07-06T04:35:32;1.70;;;1.70;;
70450;SDS011;58869;51.982;4.450;2022-07-06T04:37:57;1.43;;;1.43;;
70450;SDS011;58869;51.982;4.450;2022-07-06T04:40:23;1.63;;;1.63;;
70450;SDS011;58869;51.982;4.450;2022-07-06T04:42:48;1.51;;;1.51;;
70450;SDS011;58869;51.982;4.450;2022-07-06T04:45:17;1.72;;;1.72;;
70450;SDS011;58869;51.982;4.450;2022-07-06T04:47:42;1.61;;;1.61;;
70450;SDS011;58869;51.982;4.450;2022-07-06T04:50:09;1.56;;;1.56;;
70450;SDS011;58869;51.982;4.450;2022-07-06T04:52:34;1.72;;;1.72;;
70450;SDS011;58869;51.982;4.450;2022-07-06T04:55:00;1.80;;;1.80;;
70450;SDS011;58869;51.982;4.450;2022-07-06T04:57:25;1.79;;;1.79;;
70450;SDS011;58869;51.982;4.450;2022-07-06T04:59:53;1.53;;;1.53;;
70450;SDS011;58869;51.982;4.450;2022-07-06T05:02:18;1.54;;;1.54;;
70450;SDS011;58869;51.982;4.450;2022-07-06T05:04:44;1.68;;;1.68;;
70450;SDS011;58869;51.982;4.450;2022-07-06T05:07:09;1.63;;;1.63;;
70450;SDS011;58869;51.982;4.450;2022-07-06T05:09:38;1.61;;;1.61;;
70450;SDS011;58869;51.982;4.450;2022-07-06T05:12:06;1.73;;;1.73;;
70450;SDS011;58869;51.982;4.450;2022-07-06T05:14:35;1.54;;;1.54;;
70450;SDS011;58869;51.982;4.450;2022-07-06T05:17:01;1.69;;;1.69;;
70450;SDS011;58869;51.982;4.450;2022-07-06T05:19:27;1.56;;;1.56;;
70450;SDS011;58869;51.982;4.450;2022-07-06T05:21:52;1.54;;;1.54;;
70450;SDS011;58869;51.982;4.450;2022-07-06T05:24:18;1.56;;;1.56;;
70450;SDS011;58869;51.982;4.450;2022-07-06T05:26:44;1.57;;;1.57;;
70450;SDS011;58869;51.982;4.450;2022-07-06T05:29:10;1.53;;;1.53;;
70450;SDS011;58869;51.982;4.450;2022-07-06T05:31:36;1.33;;;1.33;;
70450;SDS011;58869;51.982;4.450;2022-07-06T05:34:01;1.34;;;1.34;;
70450;SDS011;58869;51.982;4.450;2022-07-06T05:36:27;1.54;;;1.54;;
70450;SDS011;58869;51.982;4.450;2022-07-06T05:38:52;1.65;;;1.65;;
70450;SDS011;58869;51.982;4.450;2022-07-06T05:41:18;1.53;;;1.53;;
70450;SDS011;58869;51.982;4.450;2022-07-06T05:43:43;1.38;;;1.38;;
70450;SDS011;58869;51.982;4.450;2022-07-06T05:46:09;1.47;;;1.47;;
70450;SDS011;58869;51.982;4.450;2022-07-06T05:48:34;1.51;;;1.51;;
70450;SDS011;58869;51.982;4.450;2022-07-06T05:51:21;1.36;;;1.36;;
70450;SDS011;58869;51.982;4.450;2022-07-06T05:53:46;1.09;;;1.09;;
70450;SDS011;58869;51.982;4.450;2022-07-06T05:56:13;1.17;;;1.15;;
70450;SDS011;58869;51.982;4.450;2022-07-06T05:58:41;1.02;;;0.99;;
70450;SDS011;58869;51.982;4.450;2022-07-06T06:01:10;1.06;;;1.03;;
70450;SDS011;58869;51.982;4.450;2022-07-06T06:03:35;0.93;;;0.90;;
70450;SDS011;58869;51.982;4.450;2022-07-06T06:06:01;1.09;;;1.04;;
70450;SDS011;58869;51.982;4.450;2022-07-06T06:08:27;1.07;;;1.01;;
70450;SDS011;58869;51.982;4.450;2022-07-06T06:10:53;0.83;;;0.78;;
70450;SDS011;58869;51.982;4.450;2022-07-06T06:13:18;0.94;;;0.88;;
70450;SDS011;58869;51.982;4.450;2022-07-06T06:15:45;0.88;;;0.82;;
70450;SDS011;58869;51.982;4.450;2022-07-06T06:18:10;1.06;;;0.99;;
70450;SDS011;58869;51.982;4.450;2022-07-06T06:20:36;0.93;;;0.88;;
70450;SDS011;58869;51.982;4.450;2022-07-06T06:23:01;0.86;;;0.83;;
70450;SDS011;58869;51.982;4.450;2022-07-06T06:25:30;0.86;;;0.83;;
70450;SDS011;58869;51.982;4.450;2022-07-06T06:27:57;0.76;;;0.75;;
70450;SDS011;58869;51.982;4.450;2022-07-06T06:30:23;0.87;;;0.86;;
70450;SDS011;58869;51.982;4.450;2022-07-06T06:32:48;0.84;;;0.81;;
70450;SDS011;58869;51.982;4.450;2022-07-06T06:35:14;0.80;;;0.77;;
70450;SDS011;58869;51.982;4.450;2022-07-06T06:37:39;0.74;;;0.71;;
70450;SDS011;58869;51.982;4.450;2022-07-06T06:40:05;0.78;;;0.74;;
70450;SDS011;58869;51.982;4.450;2022-07-06T06:42:32;1.23;;;1.17;;
70450;SDS011;58869;51.982;4.450;2022-07-06T06:45:01;1.12;;;1.07;;
70450;SDS011;58869;51.982;4.450;2022-07-06T06:47:26;1.23;;;1.18;;
70450;SDS011;58869;51.982;4.450;2022-07-06T06:49:51;1.91;;;1.86;;
70450;SDS011;58869;51.982;4.450;2022-07-06T06:52:17;2.49;;;2.45;;
70450;SDS011;58869;51.982;4.450;2022-07-06T06:54:42;1.62;;;1.60;;
70450;SDS011;58869;51.982;4.450;2022-07-06T06:57:08;1.48;;;1.46;;
70450;SDS011;58869;51.982;4.450;2022-07-06T06:59:51;1.16;;;1.16;;
70450;SDS011;58869;51.982;4.450;2022-07-06T07:02:17;1.05;;;1.04;;
70450;SDS011;58869;51.982;4.450;2022-07-06T07:04:42;0.96;;;0.95;;
70450;SDS011;58869;51.982;4.450;2022-07-06T07:07:08;0.69;;;0.69;;
70450;SDS011;58869;51.982;4.450;2022-07-06T07:09:36;0.80;;;0.80;;
70450;SDS011;58869;51.982;4.450;2022-07-06T07:12:05;0.56;;;0.56;;
70450;SDS011;58869;51.982;4.450;2022-07-06T07:14:34;0.65;;;0.65;;
70450;SDS011;58869;51.982;4.450;2022-07-06T07:16:59;0.66;;;0.66;;
70450;SDS011;58869;51.982;4.450;2022-07-06T07:19:27;0.58;;;0.57;;
70450;SDS011;58869;51.982;4.450;2022-07-06T07:21:53;0.62;;;0.62;;
70450;SDS011;58869;51.982;4.450;2022-07-06T07:24:21;0.68;;;0.68;;
70450;SDS011;58869;51.982;4.450;2022-07-06T07:26:46;0.66;;;0.65;;
70450;SDS011;58869;51.982;4.450;2022-07-06T07:29:12;0.76;;;0.72;;
70450;SDS011;58869;51.982;4.450;2022-07-06T07:31:37;0.70;;;0.66;;
70450;SDS011;58869;51.982;4.450;2022-07-06T07:34:05;0.75;;;0.71;;
70450;SDS011;58869;51.982;4.450;2022-07-06T07:36:31;0.68;;;0.64;;
70450;SDS011;58869;51.982;4.450;2022-07-06T07:38:56;0.70;;;0.66;;
70450;SDS011;58869;51.982;4.450;2022-07-06T07:41:22;0.53;;;0.50;;
70450;SDS011;58869;51.982;4.450;2022-07-06T07:43:47;0.65;;;0.61;;
70450;SDS011;58869;51.982;4.450;2022-07-06T07:46:13;0.57;;;0.53;;
70450;SDS011;58869;51.982;4.450;2022-07-06T07:48:38;0.44;;;0.41;;
70450;SDS011;58869;51.982;4.450;2022-07-06T07:51:03;0.64;;;0.61;;
70450;SDS011;58869;51.982;4.450;2022-07-06T07:53:29;0.53;;;0.50;;
70450;SDS011;58869;51.982;4.450;2022-07-06T07:55:54;0.63;;;0.59;;
70450;SDS011;58869;51.982;4.450;2022-07-06T07:58:20;0.49;;;0.46;;
70450;SDS011;58869;51.982;4.450;2022-07-06T08:00:45;0.58;;;0.55;;
70450;SDS011;58869;51.982;4.450;2022-07-06T08:03:11;0.57;;;0.53;;
70450;SDS011;58869;51.982;4.450;2022-07-06T08:05:37;0.70;;;0.65;;
70450;SDS011;58869;51.982;4.450;2022-07-06T08:08:03;0.48;;;0.44;;
70450;SDS011;58869;51.982;4.450;2022-07-06T08:10:29;0.67;;;0.62;;
70450;SDS011;58869;51.982;4.450;2022-07-06T08:12:55;0.45;;;0.41;;
70450;SDS011;58869;51.982;4.450;2022-07-06T08:15:20;0.42;;;0.39;;
70450;SDS011;58869;51.982;4.450;2022-07-06T08:17:46;0.67;;;0.60;;
70450;SDS011;58869;51.982;4.450;2022-07-06T08:20:11;0.60;;;0.54;;
70450;SDS011;58869;51.982;4.450;2022-07-06T08:22:38;0.82;;;0.74;;
70450;SDS011;58869;51.982;4.450;2022-07-06T08:25:04;0.76;;;0.66;;
70450;SDS011;58869;51.982;4.450;2022-07-06T08:27:30;0.75;;;0.65;;
70450;SDS011;58869;51.982;4.450;2022-07-06T08:29:55;0.68;;;0.58;;
70450;SDS011;58869;51.982;4.450;2022-07-06T08:32:22;0.63;;;0.55;;
70450;SDS011;58869;51.982;4.450;2022-07-06T08:34:48;0.61;;;0.54;;
70450;SDS011;58869;51.982;4.450;2022-07-06T08:37:14;0.67;;;0.60;;
70450;SDS011;58869;51.982;4.450;2022-07-06T08:39:39;0.61;;;0.55;;
70450;SDS011;58869;51.982;4.450;2022-07-06T08:42:05;0.68;;;0.60;;
70450;SDS011;58869;51.982;4.450;2022-07-06T08:44:32;0.60;;;0.53;;
70450;SDS011;58869;51.982;4.450;2022-07-06T08:47:02;0.77;;;0.69;;
70450;SDS011;58869;51.982;4.450;2022-07-06T08:49:31;0.82;;;0.72;;
70450;SDS011;58869;51.982;4.450;2022-07-06T08:51:58;0.66;;;0.58;;
70450;SDS011;58869;51.982;4.450;2022-07-06T08:54:24;0.56;;;0.50;;
70450;SDS011;58869;51.982;4.450;2022-07-06T08:57:05;0.64;;;0.58;;
70450;SDS011;58869;51.982;4.450;2022-07-06T08:59:31;0.81;;;0.72;;
70450;SDS011;58869;51.982;4.450;2022-07-06T09:01:57;0.74;;;0.64;;
70450;SDS011;58869;51.982;4.450;2022-07-06T09:04:25;0.66;;;0.57;;
70450;SDS011;58869;51.982;4.450;2022-07-06T09:06:50;0.78;;;0.68;;
70450;SDS011;58869;51.982;4.450;2022-07-06T09:09:18;0.73;;;0.61;;
70450;SDS011;58869;51.982;4.450;2022-07-06T09:11:46;0.80;;;0.68;;
70450;SDS011;58869;51.982;4.450;2022-07-06T09:14:14;0.83;;;0.71;;
70450;SDS011;58869;51.982;4.450;2022-07-06T09:16:39;0.74;;;0.63;;
70450;SDS011;58869;51.982;4.450;2022-07-06T09:19:05;0.69;;;0.59;;
70450;SDS011;58869;51.982;4.450;2022-07-06T09:21:32;0.56;;;0.48;;
70450;SDS011;58869;51.982;4.450;2022-07-06T09:23:59;0.66;;;0.56;;
70450;SDS011;58869;51.982;4.450;2022-07-06T09:26:30;0.89;;;0.76;;
70450;SDS011;58869;51.982;4.450;2022-07-06T09:28:56;1.84;;;1.59;;
70450;SDS011;58869;51.982;4.450;2022-07-06T09:31:25;1.10;;;0.96;;
70450;SDS011;58869;51.982;4.450;2022-07-06T09:33:54;0.80;;;0.70;;
70450;SDS011;58869;51.982;4.450;2022-07-06T09:36:37;0.76;;;0.68;;
70450;SDS011;58869;51.982;4.450;2022-07-06T09:41:45;0.69;;;0.63;;
70450;SDS011;58869;51.982;4.450;2022-07-06T09:44:12;0.76;;;0.70;;
70450;SDS011;58869;51.982;4.450;2022-07-06T09:46:41;0.79;;;0.73;;
70450;SDS011;58869;51.982;4.450;2022-07-06T09:49:07;0.82;;;0.75;;
70450;SDS011;58869;51.982;4.450;2022-07-06T09:51:37;0.75;;;0.69;;
70450;SDS011;58869;51.982;4.450;2022-07-06T09:54:06;0.81;;;0.75;;
70450;SDS011;58869;51.982;4.450;2022-07-06T09:56:36;0.85;;;0.79;;
70450;SDS011;58869;51.982;4.450;2022-07-06T09:59:09;0.97;;;0.89;;
70450;SDS011;58869;51.982;4.450;2022-07-06T10:01:38;0.75;;;0.69;;
70450;SDS011;58869;51.982;4.450;2022-07-06T10:04:07;0.86;;;0.78;;
70450;SDS011;58869;51.982;4.450;2022-07-06T10:06:34;0.87;;;0.79;;
70450;SDS011;58869;51.982;4.450;2022-07-06T10:09:00;1.32;;;1.17;;
70450;SDS011;58869;51.982;4.450;2022-07-06T10:11:26;1.27;;;1.12;;
70450;SDS011;58869;51.982;4.450;2022-07-06T10:13:57;1.10;;;0.97;;
70450;SDS011;58869;51.982;4.450;2022-07-06T10:16:23;1.42;;;1.26;;
70450;SDS011;58869;51.982;4.450;2022-07-06T10:18:50;1.29;;;1.13;;
70450;SDS011;58869;51.982;4.450;2022-07-06T10:21:19;1.22;;;1.07;;
70450;SDS011;58869;51.982;4.450;2022-07-06T10:23:46;0.97;;;0.87;;
70450;SDS011;58869;51.982;4.450;2022-07-06T10:26:12;1.03;;;0.93;;
70450;SDS011;58869;51.982;4.450;2022-07-06T10:28:39;0.86;;;0.78;;
70450;SDS011;58869;51.982;4.450;2022-07-06T10:31:07;0.95;;;0.86;;
70450;SDS011;58869;51.982;4.450;2022-07-06T10:33:33;0.94;;;0.86;;
70450;SDS011;58869;51.982;4.450;2022-07-06T10:36:00;1.05;;;0.95;;
70450;SDS011;58869;51.982;4.450;2022-07-06T10:38:30;0.84;;;0.75;;
70450;SDS011;58869;51.982;4.450;2022-07-06T10:41:04;0.86;;;0.78;;
70450;SDS011;58869;51.982;4.450;2022-07-06T10:43:32;1.09;;;0.98;;
70450;SDS011;58869;51.982;4.450;2022-07-06T10:46:08;1.13;;;0.98;;
70450;SDS011;58869;51.982;4.450;2022-07-06T10:48:37;1.34;;;1.15;;
70450;SDS011;58869;51.982;4.450;2022-07-06T10:51:03;0.90;;;0.78;;
70450;SDS011;58869;51.982;4.450;2022-07-06T10:53:31;0.88;;;0.77;;
70450;SDS011;58869;51.982;4.450;2022-07-06T10:56:10;1.25;;;1.10;;
70450;SDS011;58869;51.982;4.450;2022-07-06T11:01:11;1.39;;;1.21;;
70450;SDS011;58869;51.982;4.450;2022-07-06T11:03:38;1.27;;;1.11;;
70450;SDS011;58869;51.982;4.450;2022-07-06T11:06:11;1.25;;;1.09;;
70450;SDS011;58869;51.982;4.450;2022-07-06T11:08:42;1.43;;;1.28;;
70450;SDS011;58869;51.982;4.450;2022-07-06T11:11:16;1.44;;;1.30;;
70450;SDS011;58869;51.982;4.450;2022-07-06T11:13:53;1.31;;;1.19;;
70450;SDS011;58869;51.982;4.450;2022-07-06T11:16:22;1.48;;;1.36;;
70450;SDS011;58869;51.982;4.450;2022-07-06T11:21:34;1.55;;;1.46;;
70450;SDS011;58869;51.982;4.450;2022-07-06T11:24:01;1.31;;;1.25;;
70450;SDS011;58869;51.982;4.450;2022-07-06T11:26:29;1.40;;;1.36;;
70450;SDS011;58869;51.982;4.450;2022-07-06T11:28:55;1.26;;;1.24;;
70450;SDS011;58869;51.982;4.450;2022-07-06T11:31:23;1.66;;;1.59;;
70450;SDS011;58869;51.982;4.450;2022-07-06T11:33:49;2.13;;;1.99;;
70450;SDS011;58869;51.982;4.450;2022-07-06T11:38:42;1.45;;;1.36;;
70450;SDS011;58869;51.982;4.450;2022-07-06T11:41:08;1.30;;;1.23;;
70450;SDS011;58869;51.982;4.450;2022-07-06T11:43:34;1.39;;;1.32;;
70450;SDS011;58869;51.982;4.450;2022-07-06T11:46:02;1.48;;;1.47;;
70450;SDS011;58869;51.982;4.450;2022-07-06T11:48:29;1.37;;;1.37;;
70450;SDS011;58869;51.982;4.450;2022-07-06T11:51:01;1.49;;;1.45;;
70450;SDS011;58869;51.982;4.450;2022-07-06T11:53:28;1.91;;;1.84;;
70450;SDS011;58869;51.982;4.450;2022-07-06T11:55:54;1.89;;;1.81;;
70450;SDS011;58869;51.982;4.450;2022-07-06T11:58:22;1.46;;;1.39;;
70450;SDS011;58869;51.982;4.450;2022-07-06T12:01:07;1.54;;;1.47;;
70450;SDS011;58869;51.982;4.450;2022-07-06T12:03:36;1.72;;;1.65;;
70450;SDS011;58869;51.982;4.450;2022-07-06T12:06:03;2.10;;;2.01;;
70450;SDS011;58869;51.982;4.450;2022-07-06T12:08:29;2.02;;;1.95;;
70450;SDS011;58869;51.982;4.450;2022-07-06T12:10:54;1.34;;;1.32;;
70450;SDS011;58869;51.982;4.450;2022-07-06T12:13:21;1.37;;;1.36;;
70450;SDS011;58869;51.982;4.450;2022-07-06T12:15:46;1.44;;;1.42;;
70450;SDS011;58869;51.982;4.450;2022-07-06T12:18:12;1.94;;;1.94;;
70450;SDS011;58869;51.982;4.450;2022-07-06T12:20:40;1.50;;;1.50;;
70450;SDS011;58869;51.982;4.450;2022-07-06T12:23:06;1.48;;;1.48;;
70450;SDS011;58869;51.982;4.450;2022-07-06T12:25:33;1.40;;;1.40;;
70450;SDS011;58869;51.982;4.450;2022-07-06T12:28:01;1.55;;;1.55;;
70450;SDS011;58869;51.982;4.450;2022-07-06T12:30:28;1.56;;;1.56;;
70450;SDS011;58869;51.982;4.450;2022-07-06T12:33:14;1.29;;;1.29;;
70450;SDS011;58869;51.982;4.450;2022-07-06T12:35:48;1.65;;;1.65;;
70450;SDS011;58869;51.982;4.450;2022-07-06T12:38:20;1.54;;;1.54;;
70450;SDS011;58869;51.982;4.450;2022-07-06T12:40:50;1.43;;;1.43;;
70450;SDS011;58869;51.982;4.450;2022-07-06T12:43:34;1.42;;;1.42;;
70450;SDS011;58869;51.982;4.450;2022-07-06T12:48:51;1.58;;;1.58;;
70450;SDS011;58869;51.982;4.450;2022-07-06T12:51:17;1.49;;;1.49;;
70450;SDS011;58869;51.982;4.450;2022-07-06T12:53:43;1.34;;;1.34;;
70450;SDS011;58869;51.982;4.450;2022-07-06T12:56:18;1.38;;;1.38;;
70450;SDS011;58869;51.982;4.450;2022-07-06T12:59:00;1.69;;;1.69;;
70450;SDS011;58869;51.982;4.450;2022-07-06T13:01:26;1.66;;;1.66;;
70450;SDS011;58869;51.982;4.450;2022-07-06T13:03:57;1.72;;;1.72;;
70450;SDS011;58869;51.982;4.450;2022-07-06T13:06:27;1.81;;;1.81;;
70450;SDS011;58869;51.982;4.450;2022-07-06T13:08:54;1.59;;;1.59;;
70450;SDS011;58869;51.982;4.450;2022-07-06T13:11:19;1.78;;;1.78;;
70450;SDS011;58869;51.982;4.450;2022-07-06T13:13:45;1.60;;;1.60;;
70450;SDS011;58869;51.982;4.450;2022-07-06T13:16:10;1.83;;;1.83;;
70450;SDS011;58869;51.982;4.450;2022-07-06T13:18:36;1.90;;;1.90;;
70450;SDS011;58869;51.982;4.450;2022-07-06T13:21:01;2.21;;;2.21;;
70450;SDS011;58869;51.982;4.450;2022-07-06T13:23:26;2.06;;;2.06;;
70450;SDS011;58869;51.982;4.450;2022-07-06T13:25:52;2.28;;;2.28;;
70450;SDS011;58869;51.982;4.450;2022-07-06T13:28:18;2.01;;;2.01;;
70450;SDS011;58869;51.982;4.450;2022-07-06T13:30:44;2.12;;;2.12;;
70450;SDS011;58869;51.982;4.450;2022-07-06T13:33:09;2.46;;;2.46;;
70450;SDS011;58869;51.982;4.450;2022-07-06T13:35:35;2.58;;;2.58;;
70450;SDS011;58869;51.982;4.450;2022-07-06T13:38:01;2.76;;;2.76;;
70450;SDS011;58869;51.982;4.450;2022-07-06T13:40:26;2.75;;;2.75;;
70450;SDS011;58869;51.982;4.450;2022-07-06T13:42:52;2.31;;;2.31;;
70450;SDS011;58869;51.982;4.450;2022-07-06T13:45:19;2.73;;;2.73;;
70450;SDS011;58869;51.982;4.450;2022-07-06T13:47:45;2.68;;;2.68;;
70450;SDS011;58869;51.982;4.450;2022-07-06T13:50:10;2.48;;;2.48;;
70450;SDS011;58869;51.982;4.450;2022-07-06T13:52:36;2.54;;;2.54;;
70450;SDS011;58869;51.982;4.450;2022-07-06T13:55:02;2.79;;;2.79;;
70450;SDS011;58869;51.982;4.450;2022-07-06T13:57:28;3.29;;;3.29;;
70450;SDS011;58869;51.982;4.450;2022-07-06T13:59:54;4.02;;;4.02;;
70450;SDS011;58869;51.982;4.450;2022-07-06T14:02:19;4.02;;;4.02;;
70450;SDS011;58869;51.982;4.450;2022-07-06T14:04:45;3.55;;;3.55;;
70450;SDS011;58869;51.982;4.450;2022-07-06T14:07:11;3.93;;;3.93;;
70450;SDS011;58869;51.982;4.450;2022-07-06T14:09:36;3.94;;;3.94;;
70450;SDS011;58869;51.982;4.450;2022-07-06T14:12:02;4.05;;;4.05;;
70450;SDS011;58869;51.982;4.450;2022-07-06T14:14:28;4.07;;;4.07;;
70450;SDS011;58869;51.982;4.450;2022-07-06T14:16:54;3.93;;;3.93;;
70450;SDS011;58869;51.982;4.450;2022-07-06T14:19:21;3.73;;;3.73;;
70450;SDS011;58869;51.982;4.450;2022-07-06T14:21:47;3.30;;;3.30;;
70450;SDS011;58869;51.982;4.450;2022-07-06T14:24:13;3.62;;;3.62;;
70450;SDS011;58869;51.982;4.450;2022-07-06T14:26:39;3.63;;;3.63;;
70450;SDS011;58869;51.982;4.450;2022-07-06T14:29:05;3.77;;;3.77;;
70450;SDS011;58869;51.982;4.450;2022-07-06T14:31:31;3.70;;;3.70;;
70450;SDS011;58869;51.982;4.450;2022-07-06T14:33:56;4.10;;;4.10;;
70450;SDS011;58869;51.982;4.450;2022-07-06T14:36:22;3.83;;;3.83;;
70450;SDS011;58869;51.982;4.450;2022-07-06T14:38:48;3.85;;;3.85;;
70450;SDS011;58869;51.982;4.450;2022-07-06T14:41:13;3.84;;;3.84;;
70450;SDS011;58869;51.982;4.450;2022-07-06T14:43:39;3.91;;;3.91;;
70450;SDS011;58869;51.982;4.450;2022-07-06T14:46:04;4.99;;;4.99;;
70450;SDS011;58869;51.982;4.450;2022-07-06T14:48:30;5.15;;;5.15;;
70450;SDS011;58869;51.982;4.450;2022-07-06T14:50:56;5.18;;;5.18;;
70450;SDS011;58869;51.982;4.450;2022-07-06T14:53:22;6.51;;;6.51;;
70450;SDS011;58869;51.982;4.450;2022-07-06T14:55:50;6.22;;;6.22;;
70450;SDS011;58869;51.982;4.450;2022-07-06T14:58:16;6.71;;;6.71;;
70450;SDS011;58869;51.982;4.450;2022-07-06T15:00:44;5.97;;;5.97;;
70450;SDS011;58869;51.982;4.450;2022-07-06T15:03:10;5.38;;;5.38;;
70450;SDS011;58869;51.982;4.450;2022-07-06T15:05:36;4.64;;;4.64;;
70450;SDS011;58869;51.982;4.450;2022-07-06T15:08:02;4.17;;;4.17;;